Time;durP1;ratioP1;P1;durP2;ratioP2;P2;SDS_P1;SDS_P2;PMS_P1;PMS_P2;Temp;Humidity;BMP_temperature;BMP_pressure;BME280_temperature;BME280_humidity;BME280_pressure;Samples;Min_cycle;Max_cycle;Signal;HPM_P1;HPM_P2
2021/01/21 00:01:48;;;;;;;14.73;11.33;;;3.40;99.90;;;;;;6145318;23;20255;-87
2021/01/21 00:04:14;;;;;;;10.67;8.10;;;3.40;99.90;;;;;;6144801;23;20418;-87
2021/01/21 00:06:40;;;;;;;7.83;4.67;;;3.40;99.90;;;;;;6146209;23;20175;-87
2021/01/21 00:09:06;;;;;;;4.40;3.97;;;3.80;99.90;;;;;;6145995;23;20168;-85
2021/01/21 00:11:32;;;;;;;5.60;3.67;;;4.50;99.90;;;;;;6145275;23;20460;-87
2021/01/21 00:13:58;;;;;;;4.13;3.40;;;5.10;99.90;;;;;;6143682;23;20854;-85
2021/01/21 00:16:24;;;;;;;3.47;3.17;;;5.50;99.90;;;;;;6145650;23;20602;-86
2021/01/21 00:18:49;;;;;;;4.00;3.00;;;5.70;99.60;;;;;;6144320;23;20187;-88
2021/01/21 00:21:15;;;;;;;5.13;4.20;;;5.70;99.30;;;;;;6144579;23;20707;-87
2021/01/21 00:23:41;;;;;;;7.03;4.10;;;5.80;99.20;;;;;;6143591;23;20166;-87
2021/01/21 00:26:06;;;;;;;4.00;3.70;;;5.80;99.00;;;;;;6144016;23;20586;-86
2021/01/21 00:28:32;;;;;;;6.23;4.00;;;5.90;98.60;;;;;;6144780;23;20188;-86
2021/01/21 00:30:58;;;;;;;3.50;3.17;;;6.00;98.10;;;;;;6145628;23;20416;-86
2021/01/21 00:33:23;;;;;;;4.57;4.07;;;6.00;97.90;;;;;;6144673;23;20170;-85
2021/01/21 00:35:49;;;;;;;3.87;3.47;;;6.10;97.80;;;;;;6135233;23;20698;-85
2021/01/21 00:38:15;;;;;;;5.43;3.67;;;6.00;97.60;;;;;;6145446;23;20168;-86
2021/01/21 00:40:40;;;;;;;5.17;4.23;;;6.00;97.90;;;;;;6145310;23;20169;-86
2021/01/21 00:43:06;;;;;;;3.30;2.97;;;5.90;97.80;;;;;;6144799;23;20454;-87
2021/01/21 00:45:31;;;;;;;4.10;3.00;;;5.90;98.30;;;;;;6144348;23;20631;-86
2021/01/21 00:47:57;;;;;;;3.30;3.07;;;5.80;98.70;;;;;;6145783;23;20162;-86
2021/01/21 00:50:23;;;;;;;4.97;4.50;;;5.70;99.10;;;;;;6145341;23;20702;-86
2021/01/21 00:52:48;;;;;;;7.40;4.60;;;5.60;99.90;;;;;;6144963;23;20244;-86
2021/01/21 00:55:14;;;;;;;6.77;6.17;;;5.50;99.90;;;;;;6145603;23;20164;-87
2021/01/21 00:57:40;;;;;;;8.73;6.90;;;5.20;99.90;;;;;;6145207;23;20159;-86
2021/01/21 01:00:08;;;;;;;6.40;5.77;;;5.00;99.90;;;;;;6147507;23;20599;-86
2021/01/21 01:02:34;;;;;;;8.47;6.10;;;4.80;99.90;;;;;;6146247;23;20669;-87
2021/01/21 01:05:00;;;;;;;9.03;6.97;;;4.70;99.90;;;;;;6147026;23;20422;-87
2021/01/21 01:07:26;;;;;;;10.37;7.00;;;4.70;99.90;;;;;;6146527;23;20164;-87
2021/01/21 01:09:51;;;;;;;8.40;7.23;;;4.60;99.90;;;;;;6147714;23;20164;-87
2021/01/21 01:12:17;;;;;;;8.97;7.00;;;4.60;99.90;;;;;;6147294;23;20169;-88
2021/01/21 01:14:43;;;;;;;7.70;6.90;;;4.40;99.90;;;;;;6146479;23;20173;-87
2021/01/21 01:17:08;;;;;;;9.70;8.50;;;4.40;99.90;;;;;;6146469;23;20168;-87
2021/01/21 01:19:34;;;;;;;12.43;9.87;;;4.30;99.90;;;;;;6147639;23;20613;-88
2021/01/21 01:22:02;;;;;;;13.80;9.50;;;4.20;99.90;;;;;;6146974;23;20685;-87
2021/01/21 01:24:28;;;;;;;9.97;9.00;;;4.20;99.90;;;;;;6145696;23;20223;-86
2021/01/21 01:26:53;;;;;;;9.43;8.43;;;4.10;99.90;;;;;;6146358;23;20399;-87
2021/01/21 01:29:19;;;;;;;10.07;7.47;;;4.10;99.90;;;;;;6148218;23;20178;-86
2021/01/21 01:31:45;;;;;;;8.20;6.97;;;4.10;99.90;;;;;;6147318;23;20722;-87
2021/01/21 01:34:11;;;;;;;8.50;6.33;;;4.20;99.90;;;;;;6146771;23;20168;-86
2021/01/21 01:36:36;;;;;;;6.70;5.77;;;4.30;99.90;;;;;;6147547;23;20561;-86
2021/01/21 01:39:02;;;;;;;5.50;4.70;;;4.40;99.90;;;;;;6146203;23;20162;-86
2021/01/21 01:41:28;;;;;;;6.10;5.50;;;4.40;99.90;;;;;;6146479;23;20665;-87
2021/01/21 01:43:54;;;;;;;6.63;4.60;;;4.40;99.90;;;;;;6146503;23;20404;-86
2021/01/21 01:46:21;;;;;;;3.87;3.50;;;4.70;99.90;;;;;;6147941;23;20403;-86
2021/01/21 01:48:46;;;;;;;3.90;3.50;;;5.00;99.90;;;;;;6145914;23;20164;-86
2021/01/21 01:51:12;;;;;;;3.67;3.37;;;5.30;99.90;;;;;;6146025;23;20450;-85
2021/01/21 01:53:37;;;;;;;5.23;3.43;;;5.40;99.90;;;;;;6147261;23;20588;-87
2021/01/21 01:56:04;;;;;;;8.60;3.33;;;5.50;99.90;;;;;;6145067;23;20160;-86
2021/01/21 01:58:31;;;;;;;6.53;3.70;;;5.50;99.80;;;;;;6145999;23;20165;-85
2021/01/21 02:00:58;;;;;;;4.07;3.67;;;5.50;99.90;;;;;;6147271;23;20410;-86
2021/01/21 02:03:24;;;;;;;4.43;4.03;;;5.50;99.90;;;;;;6146690;23;20795;-86
2021/01/21 02:05:49;;;;;;;5.87;3.43;;;5.40;99.90;;;;;;6146412;23;20451;-86
2021/01/21 02:08:17;;;;;;;5.00;3.30;;;5.40;99.90;;;;;;6146489;23;20157;-85
2021/01/21 02:10:45;;;;;;;3.60;3.27;;;5.30;99.90;;;;;;6171071;23;20199;-86
2021/01/21 02:13:17;;;;;;;5.50;4.00;;;5.20;99.90;;;;;;6146326;23;20963;-86
2021/01/21 02:16:11;;;;;;;4.60;4.20;;;5.40;99.90;;;;;;6172431;23;20413;-86
2021/01/21 02:18:40;;;;;;;7.60;4.37;;;5.40;99.90;;;;;;6173241;23;20736;-86
2021/01/21 02:21:39;;;;;;;5.10;4.13;;;5.30;99.90;;;;;;6145076;23;20479;-86
2021/01/21 02:24:42;;;;;;;5.57;4.40;;;5.20;99.90;;;;;;6170522;23;20407;-87
2021/01/21 02:27:11;;;;;;;4.53;4.10;;;5.20;99.90;;;;;;6146020;23;20866;-86
2021/01/21 02:29:37;;;;;;;5.93;4.30;;;5.10;99.90;;;;;;6147698;23;20797;-87
2021/01/21 02:32:06;;;;;;;3.80;3.53;;;5.10;99.90;;;;;;6146005;23;20445;-87
2021/01/21 02:34:49;;;;;;;5.40;4.60;;;5.00;99.90;;;;;;6170103;23;20400;-86
2021/01/21 02:37:36;;;;;;;5.60;3.83;;;5.10;99.90;;;;;;6169895;23;20451;-87
2021/01/21 02:40:05;;;;;;;5.10;4.60;;;5.20;99.90;;;;;;6144661;23;20403;-87
2021/01/21 02:42:46;;;;;;;5.30;4.30;;;5.20;99.90;;;;;;6145370;23;20394;-86
2021/01/21 02:45:12;;;;;;;4.00;3.60;;;5.30;99.90;;;;;;6147437;23;20596;-87
2021/01/21 02:47:39;;;;;;;3.30;2.80;;;5.20;99.90;;;;;;6145902;23;20410;-86
2021/01/21 02:50:05;;;;;;;4.67;3.17;;;5.30;99.90;;;;;;6146318;23;20481;-86
2021/01/21 02:52:40;;;;;;;3.77;3.00;;;5.40;99.60;;;;;;6145181;23;20484;-85
2021/01/21 02:55:26;;;;;;;1.93;1.83;;;5.50;99.40;;;;;;6169475;23;20421;-87
2021/01/21 02:58:33;;;;;;;1.63;1.50;;;5.60;98.30;;;;;;6146333;23;20405;-87
2021/01/21 03:01:02;;;;;;;1.90;1.70;;;6.20;96.10;;;;;;6146556;23;20498;-87
2021/01/21 03:03:29;;;;;;;2.30;1.43;;;6.70;94.40;;;;;;6145024;23;20397;-86
2021/01/21 03:05:57;;;;;;;2.20;1.60;;;6.90;94.00;;;;;;6146608;23;20910;-87
2021/01/21 03:08:24;;;;;;;2.10;1.90;;;7.00;93.30;;;;;;6145615;23;20490;-86
2021/01/21 03:10:49;;;;;;;1.87;1.67;;;7.10;92.90;;;;;;6146679;23;20840;-87
2021/01/21 03:13:15;;;;;;;1.80;1.70;;;7.10;93.00;;;;;;6144977;23;20425;-87
2021/01/21 03:15:41;;;;;;;2.53;1.90;;;7.10;93.10;;;;;;6146655;23;20593;-86
2021/01/21 03:18:07;;;;;;;3.40;2.40;;;7.10;93.30;;;;;;6146095;23;20406;-87
2021/01/21 03:20:32;;;;;;;3.70;2.40;;;7.00;94.10;;;;;;6145002;23;20234;-87
2021/01/21 03:22:58;;;;;;;2.50;2.30;;;6.80;95.00;;;;;;6146104;23;20611;-87
2021/01/21 03:25:24;;;;;;;3.00;2.67;;;6.50;96.00;;;;;;6145921;23;20164;-86
2021/01/21 03:27:49;;;;;;;3.53;2.80;;;6.30;96.90;;;;;;6146503;23;20249;-87
2021/01/21 03:30:15;;;;;;;2.80;2.60;;;6.00;97.90;;;;;;6146264;23;20275;-86
2021/01/21 03:32:41;;;;;;;2.53;2.33;;;5.80;98.60;;;;;;6145516;23;20172;-86
2021/01/21 03:35:07;;;;;;;4.23;3.17;;;5.60;99.30;;;;;;6145687;23;20388;-86
2021/01/21 03:37:34;;;;;;;2.90;2.60;;;5.70;99.00;;;;;;6145723;23;20239;-86
2021/01/21 03:40:00;;;;;;;3.60;2.30;;;5.70;98.80;;;;;;6145807;23;21791;-85
2021/01/21 03:42:26;;;;;;;2.00;1.80;;;5.80;98.10;;;;;;6146460;23;20394;-86
2021/01/21 03:44:51;;;;;;;2.30;1.37;;;6.30;95.80;;;;;;6145914;23;20461;-86
2021/01/21 03:47:17;;;;;;;2.00;1.50;;;6.80;93.90;;;;;;6145028;23;20384;-86
2021/01/21 03:49:43;;;;;;;1.37;1.27;;;7.30;92.30;;;;;;6145734;23;20231;-85
2021/01/21 03:52:08;;;;;;;1.33;1.20;;;7.40;91.20;;;;;;6145014;23;20195;-87
2021/01/21 03:54:34;;;;;;;1.47;1.37;;;7.50;90.90;;;;;;6145775;23;20172;-86
2021/01/21 03:57:00;;;;;;;1.30;1.20;;;7.50;90.50;;;;;;6146384;23;20175;-85
2021/01/21 03:59:25;;;;;;;1.60;1.50;;;7.60;90.30;;;;;;6145759;23;20168;-86
2021/01/21 04:01:51;;;;;;;1.10;1.00;;;7.50;90.20;;;;;;6171983;23;20179;-86
2021/01/21 04:04:17;;;;;;;1.67;1.57;;;7.50;90.20;;;;;;6145784;23;20549;-86
2021/01/21 04:06:42;;;;;;;1.67;1.37;;;7.40;90.60;;;;;;6146092;23;20620;-86
2021/01/21 04:09:08;;;;;;;1.80;1.70;;;7.30;91.30;;;;;;6145930;23;20168;-86
2021/01/21 04:11:33;;;;;;;1.90;1.67;;;7.20;91.90;;;;;;6145378;23;20207;-86
2021/01/21 04:13:59;;;;;;;1.83;1.33;;;7.10;92.20;;;;;;6146065;23;20164;-86
2021/01/21 04:16:25;;;;;;;1.30;1.20;;;7.00;92.70;;;;;;6145818;23;20168;-86
2021/01/21 04:18:50;;;;;;;1.60;1.50;;;7.00;93.20;;;;;;6145976;23;20179;-86
2021/01/21 04:21:16;;;;;;;1.60;1.50;;;6.90;93.20;;;;;;6146109;23;20224;-86
2021/01/21 04:23:42;;;;;;;1.70;1.60;;;6.80;94.10;;;;;;6143909;23;20193;-87
2021/01/21 04:26:07;;;;;;;1.80;1.43;;;6.70;94.60;;;;;;6145800;23;20597;-87
2021/01/21 04:28:33;;;;;;;2.10;1.90;;;6.60;95.60;;;;;;6145561;23;20190;-86
2021/01/21 04:30:59;;;;;;;1.67;1.57;;;6.50;95.30;;;;;;6145039;23;20194;-86
2021/01/21 04:33:24;;;;;;;5.73;2.33;;;6.50;95.40;;;;;;6170424;23;20540;-86
2021/01/21 04:35:50;;;;;;;4.03;2.10;;;6.50;95.30;;;;;;6148364;23;20267;-85
2021/01/21 04:38:16;;;;;;;1.40;1.27;;;6.50;95.30;;;;;;6147016;23;20167;-86
2021/01/21 04:40:43;;;;;;;1.47;1.33;;;6.50;95.20;;;;;;6147168;23;20421;-85
2021/01/21 04:43:09;;;;;;;2.50;1.40;;;6.50;95.00;;;;;;6146673;23;20186;-87
2021/01/21 04:45:35;;;;;;;1.47;1.33;;;6.50;95.00;;;;;;6147670;23;20700;-86
2021/01/21 04:48:01;;;;;;;1.40;1.30;;;6.60;94.60;;;;;;6148396;23;20169;-86
2021/01/21 04:50:28;;;;;;;1.50;1.40;;;6.70;94.40;;;;;;6147558;23;20492;-85
2021/01/21 04:52:55;;;;;;;1.70;1.50;;;6.70;94.00;;;;;;6147300;23;20430;-86
2021/01/21 04:55:25;;;;;;;1.93;1.60;;;6.70;93.70;;;;;;6147104;23;20411;-85
2021/01/21 04:58:03;;;;;;;1.27;1.17;;;7.00;92.80;;;;;;6146232;23;20503;-86
2021/01/21 05:00:29;;;;;;;1.30;1.20;;;7.10;92.90;;;;;;6171377;23;20923;-85
2021/01/21 05:02:56;;;;;;;1.80;1.27;;;7.00;92.90;;;;;;6146326;23;20400;-86
2021/01/21 05:05:22;;;;;;;1.67;1.57;;;7.10;92.80;;;;;;6148291;23;20496;-86
2021/01/21 05:07:48;;;;;;;1.40;1.27;;;7.20;92.50;;;;;;6147936;23;20405;-86
2021/01/21 05:10:16;;;;;;;0.90;0.90;;;7.20;92.60;;;;;;6146543;23;20426;-86
2021/01/21 05:12:41;;;;;;;1.50;1.23;;;7.30;92.60;;;;;;6147745;23;20176;-85
2021/01/21 05:15:08;;;;;;;0.90;0.90;;;7.20;92.70;;;;;;6145903;23;20383;-85
2021/01/21 05:17:34;;;;;;;0.93;0.80;;;7.30;92.40;;;;;;6147785;23;20180;-85
2021/01/21 05:20:00;;;;;;;0.70;0.70;;;7.40;92.10;;;;;;6147613;23;20402;-86
2021/01/21 05:22:26;;;;;;;5.27;1.17;;;7.40;92.30;;;;;;6146782;23;20181;-86
2021/01/21 05:24:52;;;;;;;0.80;0.80;;;7.50;91.70;;;;;;6148263;23;20434;-87
2021/01/21 05:27:20;;;;;;;2.27;0.70;;;7.80;90.80;;;;;;6147720;23;20196;-86
2021/01/21 05:29:47;;;;;;;0.80;0.70;;;7.90;90.00;;;;;;6146837;23;20568;-86
2021/01/21 05:32:17;;;;;;;2.37;0.80;;;8.10;87.80;;;;;;6147596;23;20502;-86
2021/01/21 05:34:44;;;;;;;1.10;0.77;;;8.30;86.00;;;;;;6148028;23;20388;-86
2021/01/21 05:37:11;;;;;;;0.80;0.80;;;8.30;86.20;;;;;;6146879;23;20407;-85
2021/01/21 05:39:39;;;;;;;0.57;0.57;;;8.20;86.80;;;;;;6147144;23;20395;-86
2021/01/21 05:42:05;;;;;;;1.90;0.70;;;8.20;87.20;;;;;;6146682;23;20396;-85
2021/01/21 05:44:32;;;;;;;0.90;0.70;;;8.10;87.10;;;;;;6147309;23;20423;-85
2021/01/21 05:47:04;;;;;;;0.97;0.97;;;8.10;87.80;;;;;;6146699;23;20453;-86
2021/01/21 05:49:29;;;;;;;2.70;1.00;;;8.00;89.50;;;;;;6146095;23;20380;-86
2021/01/21 05:51:57;;;;;;;1.70;0.60;;;7.80;90.10;;;;;;6146632;23;20494;-86
2021/01/21 05:54:24;;;;;;;1.40;0.80;;;7.80;90.60;;;;;;6149189;23;20199;-87
2021/01/21 05:56:52;;;;;;;0.90;0.80;;;7.70;90.90;;;;;;6149914;23;20400;-87
2021/01/21 05:59:19;;;;;;;1.20;0.90;;;7.60;90.80;;;;;;6148969;23;20426;-86
2021/01/21 06:01:45;;;;;;;0.70;0.70;;;7.60;90.70;;;;;;6150572;23;20713;-86
2021/01/21 06:04:12;;;;;;;1.73;1.00;;;7.70;90.70;;;;;;6149024;23;20702;-86
2021/01/21 06:06:39;;;;;;;3.77;0.83;;;7.80;90.30;;;;;;6150367;23;20872;-87
2021/01/21 06:09:15;;;;;;;1.23;0.67;;;8.00;88.40;;;;;;6150082;23;20391;-86
2021/01/21 06:11:41;;;;;;;1.67;0.90;;;8.20;86.30;;;;;;6150940;23;20450;-86
2021/01/21 06:14:07;;;;;;;2.27;0.87;;;8.40;83.80;;;;;;6149461;23;20391;-86
2021/01/21 06:16:34;;;;;;;0.80;0.80;;;8.60;82.00;;;;;;6176561;23;20458;-85
2021/01/21 06:19:00;;;;;;;1.47;0.70;;;8.70;79.90;;;;;;6150567;23;20192;-86
2021/01/21 06:21:26;;;;;;;1.13;0.60;;;8.90;76.60;;;;;;6148732;23;20486;-85
2021/01/21 06:24:03;;;;;;;0.60;0.60;;;9.00;75.90;;;;;;6149666;23;20253;-86
2021/01/21 06:26:37;;;;;;;1.60;0.80;;;9.00;75.70;;;;;;6150287;23;20474;-86
2021/01/21 06:29:03;;;;;;;2.20;0.90;;;8.90;76.00;;;;;;6149583;23;20396;-85
2021/01/21 06:31:32;;;;;;;0.83;0.83;;;8.90;75.70;;;;;;6149738;23;20445;-86
2021/01/21 06:33:59;;;;;;;0.77;0.77;;;8.90;76.50;;;;;;6148315;23;20392;-86
2021/01/21 06:36:27;;;;;;;2.10;1.20;;;8.80;76.00;;;;;;6148599;23;20729;-85
2021/01/21 06:38:58;;;;;;;1.13;1.03;;;8.80;76.20;;;;;;6148813;23;20391;-86
2021/01/21 06:41:29;;;;;;;2.40;1.13;;;8.90;77.00;;;;;;6149627;23;20486;-86
2021/01/21 06:43:56;;;;;;;1.20;1.00;;;8.80;77.50;;;;;;6149598;23;20384;-86
2021/01/21 06:46:22;;;;;;;1.20;1.00;;;8.80;77.50;;;;;;6149684;23;20390;-86
2021/01/21 06:48:48;;;;;;;1.53;0.93;;;8.70;77.70;;;;;;6148743;23;20396;-86
2021/01/21 06:51:16;;;;;;;0.70;0.70;;;8.70;78.30;;;;;;6149305;23;20447;-86
2021/01/21 06:53:46;;;;;;;0.67;0.67;;;8.70;77.60;;;;;;6148153;23;20398;-85
2021/01/21 06:56:12;;;;;;;1.43;0.70;;;8.80;76.40;;;;;;6148122;23;20484;-86
2021/01/21 06:58:48;;;;;;;0.90;0.60;;;8.90;74.70;;;;;;6148365;23;20397;-86
2021/01/21 07:01:32;;;;;;;1.00;0.50;;;9.10;73.30;;;;;;6148137;23;20395;-86
2021/01/21 07:04:04;;;;;;;0.60;0.60;;;9.20;72.50;;;;;;6172841;23;20410;-85
2021/01/21 07:07:03;;;;;;;0.90;0.70;;;9.20;71.40;;;;;;6173635;23;20386;-86
2021/01/21 07:09:28;;;;;;;0.87;0.87;;;9.20;71.40;;;;;;6148794;23;20715;-85
2021/01/21 07:11:56;;;;;;;0.97;0.93;;;9.20;71.50;;;;;;6148851;23;20451;-85
2021/01/21 07:14:31;;;;;;;1.80;0.80;;;9.20;72.30;;;;;;6148825;23;20168;-86
2021/01/21 07:16:58;;;;;;;0.80;0.70;;;9.10;73.30;;;;;;6147918;23;20502;-86
2021/01/21 07:19:48;;;;;;;0.87;0.67;;;9.30;73.90;;;;;;6174768;23;20420;-87
2021/01/21 07:22:20;;;;;;;1.33;1.00;;;9.30;75.50;;;;;;6134531;23;20413;-89
2021/01/21 07:25:00;;;;;;;2.40;1.10;;;9.40;76.10;;;;;;6148887;23;20399;-86
2021/01/21 07:27:28;;;;;;;2.70;1.30;;;9.40;78.00;;;;;;6149013;23;20406;-86
2021/01/21 07:30:21;;;;;;;0.80;0.80;;;9.30;79.40;;;;;;6149163;23;20427;-86
2021/01/21 07:32:47;;;;;;;1.80;1.07;;;9.30;80.20;;;;;;6145182;23;20406;-85
2021/01/21 07:35:31;;;;;;;1.00;1.00;;;9.30;80.50;;;;;;6148292;23;20394;-86
2021/01/21 07:37:57;;;;;;;1.50;1.03;;;9.30;81.40;;;;;;6172224;23;20762;-87
2021/01/21 07:40:42;;;;;;;1.63;1.20;;;9.40;82.40;;;;;;6148460;23;20536;-88
2021/01/21 07:43:08;;;;;;;4.60;1.30;;;9.30;83.20;;;;;;6172863;23;20541;-88
2021/01/21 07:45:34;;;;;;;1.60;1.50;;;9.20;84.30;;;;;;6149174;23;20394;-86
2021/01/21 07:48:22;;;;;;;1.77;1.23;;;9.20;85.40;;;;;;6148527;23;20394;-86
2021/01/21 07:50:48;;;;;;;1.40;1.30;;;9.20;86.50;;;;;;6172886;23;20196;-87
2021/01/21 07:53:21;;;;;;;2.10;1.07;;;9.20;87.80;;;;;;6148815;23;20393;-86
2021/01/21 07:55:48;;;;;;;1.17;0.90;;;9.30;88.60;;;;;;6176057;23;20453;-86
2021/01/21 07:58:34;;;;;;;2.43;1.40;;;9.20;89.70;;;;;;6148311;23;20492;-88
2021/01/21 08:01:08;;;;;;;1.80;0.97;;;9.20;90.60;;;;;;6147847;23;20471;-87
2021/01/21 08:03:39;;;;;;;1.20;0.90;;;9.10;91.20;;;;;;6146751;23;20407;-87
2021/01/21 08:06:31;;;;;;;1.63;1.03;;;9.10;92.10;;;;;;6148595;23;20815;-89
2021/01/21 08:09:25;;;;;;;1.30;1.00;;;9.20;92.60;;;;;;6146948;23;20399;-89
2021/01/21 08:11:52;;;;;;;1.00;0.90;;;9.30;93.10;;;;;;6146176;23;20523;-88
2021/01/21 08:14:18;;;;;;;3.70;0.63;;;9.50;93.30;;;;;;6148045;23;20481;-84
2021/01/21 08:17:02;;;;;;;1.67;0.70;;;9.70;93.70;;;;;;6148256;23;20773;-88
2021/01/21 08:19:27;;;;;;;0.70;0.40;;;9.90;94.00;;;;;;6147665;23;20695;-86
2021/01/21 08:22:06;;;;;;;4.43;4.10;;;10.20;93.50;;;;;;6172867;23;20422;-87
2021/01/21 08:24:32;;;;;;;2.27;1.40;;;10.20;93.30;;;;;;6147702;23;20172;-88
2021/01/21 08:27:03;;;;;;;1.23;0.63;;;10.20;93.30;;;;;;6146625;23;20799;-86
2021/01/21 08:29:31;;;;;;;1.17;0.60;;;10.20;93.20;;;;;;6147245;23;20511;-88
2021/01/21 08:31:56;;;;;;;0.70;0.70;;;10.20;93.30;;;;;;6147165;23;20450;-89
2021/01/21 08:34:24;;;;;;;0.83;0.60;;;10.40;93.20;;;;;;6146845;23;20924;-88
2021/01/21 08:36:50;;;;;;;1.03;0.40;;;10.30;93.30;;;;;;6143960;23;20174;-88
2021/01/21 08:39:17;;;;;;;0.50;0.50;;;10.40;93.20;;;;;;6146122;23;20406;-89
2021/01/21 08:41:44;;;;;;;0.40;0.40;;;10.40;93.20;;;;;;6146983;23;20408;-88
2021/01/21 08:44:17;;;;;;;2.00;0.70;;;10.40;93.20;;;;;;6146986;23;20422;-87
2021/01/21 08:46:43;;;;;;;0.77;0.60;;;10.40;93.20;;;;;;6146155;23;20461;-89
2021/01/21 08:49:10;;;;;;;1.37;0.60;;;10.40;93.50;;;;;;6148633;23;20388;-88
2021/01/21 08:51:39;;;;;;;0.77;0.67;;;10.30;93.60;;;;;;6147224;23;20224;-88
2021/01/21 08:54:12;;;;;;;2.30;0.90;;;10.50;93.40;;;;;;6147565;23;20412;-89
2021/01/21 08:56:38;;;;;;;0.57;0.57;;;10.70;93.30;;;;;;6148866;23;20799;-91
2021/01/21 08:59:26;;;;;;;0.60;0.60;;;11.10;92.60;;;;;;6146281;23;20598;-89
2021/01/21 09:01:52;;;;;;;1.00;0.90;;;11.20;92.20;;;;;;6148583;23;20617;-88
2021/01/21 09:04:37;;;;;;;1.00;0.90;;;11.40;92.50;;;;;;6148800;23;20395;-90
2021/01/21 09:07:05;;;;;;;0.57;0.57;;;11.60;92.10;;;;;;6148597;23;20519;-91
2021/01/21 09:09:31;;;;;;;0.80;0.60;;;11.80;91.90;;;;;;6153287;23;20396;-91
2021/01/21 09:12:13;;;;;;;0.50;0.50;;;11.70;91.90;;;;;;6171564;23;20714;-89
2021/01/21 09:14:38;;;;;;;0.53;0.53;;;11.80;92.20;;;;;;6147764;23;20247;-88
2021/01/21 09:17:12;;;;;;;0.47;0.47;;;11.70;92.10;;;;;;6147827;23;20439;-91
2021/01/21 09:19:40;;;;;;;0.50;0.43;;;11.90;92.10;;;;;;6149503;23;20195;-88
2021/01/21 09:22:07;;;;;;;0.60;0.60;;;11.80;92.10;;;;;;6150458;23;20743;-89
2021/01/21 09:24:34;;;;;;;0.70;0.53;;;11.90;92.30;;;;;;6175234;23;20482;-88
2021/01/21 09:27:14;;;;;;;0.77;0.77;;;11.70;92.60;;;;;;6150531;23;21056;-89
2021/01/21 09:30:04;;;;;;;1.20;0.60;;;11.70;92.70;;;;;;6150001;23;20473;-89
2021/01/21 09:32:36;;;;;;;0.53;0.30;;;11.80;92.40;;;;;;6150580;23;20490;-89
2021/01/21 09:35:07;;;;;;;1.50;0.60;;;11.90;92.30;;;;;;6150206;23;20404;-88
2021/01/21 09:37:48;;;;;;;0.60;0.60;;;12.10;92.20;;;;;;6175522;23;20453;-88
2021/01/21 09:40:33;;;;;;;0.60;0.50;;;12.30;92.00;;;;;;6150505;23;20478;-88
2021/01/21 09:43:01;;;;;;;0.77;0.50;;;12.50;91.40;;;;;;6148966;23;20403;-88
2021/01/21 09:45:28;;;;;;;0.77;0.53;;;12.70;90.80;;;;;;6151168;23;20402;-88
2021/01/21 09:47:54;;;;;;;1.57;0.67;;;12.60;90.80;;;;;;6148561;23;20396;-88
2021/01/21 09:50:20;;;;;;;0.90;0.43;;;12.10;91.20;;;;;;6148963;23;20423;-87
2021/01/21 09:52:47;;;;;;;0.50;0.50;;;11.90;92.10;;;;;;6150295;23;20411;-88
2021/01/21 09:55:13;;;;;;;1.80;0.53;;;11.80;92.40;;;;;;6149933;23;20400;-88
2021/01/21 09:57:39;;;;;;;0.50;0.33;;;11.70;92.90;;;;;;6150262;23;20406;-88
2021/01/21 10:00:09;;;;;;;1.30;0.87;;;11.80;92.90;;;;;;6149913;23;20482;-88
2021/01/21 10:02:35;;;;;;;0.80;0.50;;;12.10;92.30;;;;;;6150883;23;20830;-88
2021/01/21 10:05:01;;;;;;;0.70;0.70;;;12.40;91.80;;;;;;6149917;23;20453;-88
2021/01/21 10:07:27;;;;;;;1.47;0.60;;;12.70;91.20;;;;;;6148610;23;20407;-88
2021/01/21 10:09:53;;;;;;;0.40;0.40;;;13.00;90.20;;;;;;6149606;23;20395;-89
2021/01/21 10:12:19;;;;;;;1.13;0.60;;;13.20;89.80;;;;;;6149580;23;20202;-90
2021/01/21 10:14:44;;;;;;;0.50;0.43;;;13.20;87.80;;;;;;6149525;23;20396;-89
2021/01/21 10:17:10;;;;;;;0.40;0.40;;;13.40;87.80;;;;;;6148403;23;20168;-87
2021/01/21 10:19:36;;;;;;;1.47;0.50;;;13.40;86.90;;;;;;6149806;23;20180;-88
2021/01/21 10:22:02;;;;;;;0.70;0.40;;;12.90;87.80;;;;;;6149717;23;20161;-88
2021/01/21 10:24:28;;;;;;;0.70;0.60;;;12.50;90.30;;;;;;6149985;23;20851;-89
2021/01/21 10:26:54;;;;;;;0.77;0.50;;;12.30;90.80;;;;;;6150879;23;20400;-88
2021/01/21 10:29:20;;;;;;;0.73;0.70;;;12.60;90.70;;;;;;6149570;23;20583;-89
2021/01/21 10:31:46;;;;;;;1.03;0.90;;;12.50;90.80;;;;;;6148752;23;20200;-88
2021/01/21 10:34:12;;;;;;;0.67;0.67;;;12.70;90.50;;;;;;6149160;23;20160;-88
2021/01/21 10:36:38;;;;;;;0.73;0.73;;;13.20;90.10;;;;;;6147194;23;20396;-88
2021/01/21 10:39:05;;;;;;;0.53;0.50;;;13.60;87.00;;;;;;6145919;23;20179;-90
2021/01/21 10:41:31;;;;;;;0.57;0.57;;;13.70;86.50;;;;;;6149446;23;20398;-89
2021/01/21 10:43:56;;;;;;;1.57;0.57;;;13.20;86.20;;;;;;6147666;23;20458;-89
2021/01/21 10:46:22;;;;;;;0.40;0.40;;;13.10;88.40;;;;;;6148810;23;20396;-89
2021/01/21 10:48:48;;;;;;;0.90;0.50;;;12.90;89.50;;;;;;6150875;23;20172;-90
2021/01/21 10:51:13;;;;;;;0.83;0.50;;;13.10;89.40;;;;;;6150162;23;20642;-89
2021/01/21 10:53:39;;;;;;;0.70;0.70;;;13.40;87.60;;;;;;6149553;23;20192;-90
2021/01/21 10:56:05;;;;;;;1.07;0.50;;;13.90;85.10;;;;;;6148976;23;20602;-90
2021/01/21 10:58:31;;;;;;;0.63;0.63;;;13.90;83.40;;;;;;6149676;23;20164;-90
2021/01/21 11:00:57;;;;;;;1.23;0.53;;;14.20;83.60;;;;;;6149105;23;20418;-89
2021/01/21 11:03:22;;;;;;;0.87;0.47;;;14.20;82.20;;;;;;6149642;23;20372;-90
2021/01/21 11:05:48;;;;;;;0.50;0.50;;;13.90;82.20;;;;;;6149321;23;20175;-89
2021/01/21 11:08:14;;;;;;;0.67;0.50;;;13.40;86.10;;;;;;6149667;23;20223;-93
2021/01/21 11:10:40;;;;;;;3.33;0.53;;;14.00;85.90;;;;;;6148591;23;20210;-92
2021/01/21 11:13:16;;;;;;;0.97;0.60;;;14.50;81.70;;;;;;6150382;23;20243;-93
2021/01/21 11:15:51;;;;;;;1.70;0.50;;;14.20;81.00;;;;;;6149120;23;20396;-91
2021/01/21 11:18:16;;;;;;;0.77;0.77;;;13.30;84.70;;;;;;6151089;23;20787;-92
2021/01/21 11:20:43;;;;;;;0.50;0.50;;;13.30;86.90;;;;;;6152046;23;20683;-91
2021/01/21 11:23:15;;;;;;;0.77;0.77;;;13.70;84.00;;;;;;6153601;23;20239;-92
2021/01/21 11:25:42;;;;;;;0.60;0.60;;;13.50;85.10;;;;;;6152736;23;20395;-90
2021/01/21 11:28:08;;;;;;;0.70;0.57;;;13.30;87.40;;;;;;6129003;23;20414;-91
2021/01/21 11:30:34;;;;;;;0.90;0.60;;;13.80;83.70;;;;;;6148638;23;20771;-92
2021/01/21 11:33:00;;;;;;;0.90;0.70;;;13.70;85.50;;;;;;6149381;23;20235;-92
2021/01/21 11:35:26;;;;;;;0.50;0.50;;;13.60;86.00;;;;;;6150403;23;20404;-92
2021/01/21 11:37:53;;;;;;;1.10;0.57;;;13.90;86.10;;;;;;6150756;23;20454;-92
2021/01/21 11:40:18;;;;;;;0.50;0.50;;;15.10;79.80;;;;;;6149369;23;20457;-92
2021/01/21 11:42:44;;;;;;;0.97;0.70;;;14.70;80.10;;;;;;6146948;23;20818;-91
2021/01/21 11:45:10;;;;;;;1.00;1.00;;;13.80;83.10;;;;;;6148911;23;20180;-91
2021/01/21 11:47:39;;;;;;;1.67;0.50;;;13.30;86.90;;;;;;6148887;23;20585;-92
2021/01/21 11:50:09;;;;;;;1.73;0.80;;;13.20;87.60;;;;;;6149632;23;20731;-91
2021/01/21 11:52:35;;;;;;;0.50;0.50;;;13.00;89.40;;;;;;6149116;23;20801;-91
2021/01/21 11:55:01;;;;;;;0.70;0.50;;;12.90;90.10;;;;;;6149075;23;20644;-90
2021/01/21 11:57:26;;;;;;;0.50;0.50;;;13.00;90.20;;;;;;6149574;23;20171;-91
2021/01/21 11:59:52;;;;;;;0.33;0.33;;;13.00;90.30;;;;;;6149340;23;20215;-90
2021/01/21 12:02:18;;;;;;;0.50;0.50;;;12.90;90.20;;;;;;6149447;23;20192;-93
2021/01/21 12:04:43;;;;;;;0.97;0.70;;;12.90;90.70;;;;;;6149172;23;20669;-92
2021/01/21 12:07:09;;;;;;;0.47;0.40;;;12.90;91.10;;;;;;6149579;23;20164;-93
2021/01/21 12:09:35;;;;;;;0.50;0.40;;;12.90;90.70;;;;;;6150034;23;20298;-94
2021/01/21 12:12:00;;;;;;;1.63;0.70;;;12.90;90.70;;;;;;6150714;23;20200;-94
2021/01/21 12:14:26;;;;;;;1.30;0.53;;;12.90;90.90;;;;;;6148583;23;20186;-92
2021/01/21 12:16:56;;;;;;;0.77;0.50;;;13.00;91.00;;;;;;6148136;23;20210;-92
2021/01/21 12:19:21;;;;;;;0.50;0.50;;;12.80;91.10;;;;;;6148324;23;20211;-92
2021/01/21 12:21:47;;;;;;;0.53;0.53;;;12.70;91.90;;;;;;6149128;23;20404;-92
2021/01/21 12:24:12;;;;;;;1.27;0.60;;;12.70;91.90;;;;;;6150529;23;20160;-90
2021/01/21 12:26:38;;;;;;;1.90;1.43;;;12.60;92.10;;;;;;6151019;23;20199;-94
2021/01/21 12:29:06;;;;;;;4.50;1.47;;;12.60;92.10;;;;;;6150113;23;20195;-92
2021/01/21 12:31:32;;;;;;;1.33;1.03;;;12.60;92.30;;;;;;6148242;23;20518;-92
2021/01/21 12:33:59;;;;;;;1.90;0.60;;;12.60;92.70;;;;;;6149998;23;20482;-91
2021/01/21 12:36:24;;;;;;;0.40;0.40;;;12.50;92.30;;;;;;6151134;23;20247;-90
2021/01/21 12:38:50;;;;;;;0.90;0.70;;;12.40;92.40;;;;;;6148746;23;20878;-91
2021/01/21 12:41:16;;;;;;;0.40;0.40;;;12.40;92.70;;;;;;6149111;23;20163;-90
2021/01/21 12:43:41;;;;;;;0.60;0.60;;;12.40;92.70;;;;;;6149679;23;20206;-89
2021/01/21 12:46:07;;;;;;;0.40;0.40;;;12.60;92.60;;;;;;6149282;23;20160;-88
2021/01/21 12:48:32;;;;;;;1.00;0.70;;;12.80;92.50;;;;;;6137477;23;20168;-89
2021/01/21 12:50:58;;;;;;;0.73;0.47;;;12.90;92.30;;;;;;6146072;23;20446;-86
2021/01/21 12:53:24;;;;;;;0.60;0.30;;;12.90;92.10;;;;;;6145843;23;20172;-86
2021/01/21 12:55:52;;;;;;;1.87;0.90;;;13.00;91.80;;;;;;6148837;23;20180;-87
2021/01/21 12:58:17;;;;;;;0.50;0.50;;;13.30;91.90;;;;;;6148250;23;20234;-86
2021/01/21 13:00:43;;;;;;;0.73;0.70;;;13.20;91.60;;;;;;6147808;23;20881;-88